createdAt,value
2023-02-19T00:01:39.532Z,99451.30
2023-02-19T00:04:09.642Z,99442.21
2023-02-19T00:06:37.461Z,99448.35
2023-02-19T00:09:05.903Z,99449.88
2023-02-19T00:11:34.380Z,99453.09
2023-02-19T00:14:02.974Z,99449.37
2023-02-19T00:16:32.471Z,99449.65
2023-02-19T00:19:01.411Z,99452.75
2023-02-19T00:21:29.224Z,99452.43
2023-02-19T00:24:00.872Z,99449.80
2023-02-19T00:26:29.180Z,99450.66
2023-02-19T00:28:57.577Z,99448.59
2023-02-19T00:31:27.115Z,99448.93
2023-02-19T00:33:57.358Z,99450.61
2023-02-19T00:36:26.589Z,99456.81
2023-02-19T00:38:54.634Z,99467.38
2023-02-19T00:41:24.039Z,99472.07
2023-02-19T00:43:54.828Z,99468.41
2023-02-19T00:46:24.129Z,99467.59
2023-02-19T00:48:52.593Z,99473.72
2023-02-19T00:51:21.462Z,99469.39
2023-02-19T00:53:49.205Z,99469.74
2023-02-19T00:56:17.399Z,99466.44
2023-02-19T00:58:45.400Z,99455.65
2023-02-19T01:01:13.762Z,99455.27
2023-02-19T01:03:41.805Z,99462.21
2023-02-19T01:06:10.509Z,99452.25
2023-02-19T01:08:38.226Z,99455.20
2023-02-19T01:11:07.292Z,99455.48
2023-02-19T01:13:35.690Z,99460.80
2023-02-19T01:16:07.897Z,99458.52
2023-02-19T01:18:35.988Z,99462.44
2023-02-19T01:21:08.622Z,99464.47
2023-02-19T01:23:36.598Z,99465.73
2023-02-19T01:26:06.233Z,99466.26
2023-02-19T01:28:34.326Z,99462.67
2023-02-19T01:31:03.386Z,99459.08
2023-02-19T01:33:31.784Z,99453.73
2023-02-19T01:35:59.594Z,99450.77
2023-02-19T01:38:27.689Z,99448.94
2023-02-19T01:40:56.725Z,99448.13
2023-02-19T01:43:24.542Z,99448.20
2023-02-19T01:45:52.682Z,99442.43
2023-02-19T01:48:23.761Z,99445.66
2023-02-19T01:51:03.160Z,99440.90
2023-02-19T01:53:33.667Z,99441.93
2023-02-19T01:56:02.421Z,99444.30
2023-02-19T01:58:32.789Z,99446.42
2023-02-19T02:01:02.998Z,99443.39
2023-02-19T02:03:31.426Z,99434.85
2023-02-19T02:06:05.340Z,99431.73
2023-02-19T02:08:49.561Z,99436.06
2023-02-19T02:11:21.669Z,99436.98
2023-02-19T02:13:49.997Z,99440.06
2023-02-19T02:16:20.892Z,99430.27
2023-02-19T02:18:54.539Z,99425.65
2023-02-19T02:21:28.042Z,99429.11
2023-02-19T02:24:13.042Z,99429.06
2023-02-19T02:26:56.766Z,99429.02
2023-02-19T02:29:27.840Z,99429.19
2023-02-19T02:31:59.662Z,99428.95
2023-02-19T02:34:30.198Z,99431.23
2023-02-19T02:36:59.497Z,99430.59
2023-02-19T02:39:30.609Z,99427.15
2023-02-19T02:42:15.900Z,99422.65
2023-02-19T02:45:01.811Z,99420.50
2023-02-19T02:47:49.437Z,99416.40
2023-02-19T02:50:21.455Z,99411.77
2023-02-19T02:53:08.162Z,99409.67
2023-02-19T02:55:39.597Z,99408.86
2023-02-19T02:58:08.681Z,99398.32
2023-02-19T03:00:57.804Z,99401.80
2023-02-19T03:03:27.242Z,99399.21
2023-02-19T03:05:58.816Z,99396.23
2023-02-19T03:08:42.741Z,99394.45
2023-02-19T03:11:27.720Z,99391.88
2023-02-19T03:14:17.684Z,99390.79
2023-02-19T03:17:04.077Z,99394.15
2023-02-19T03:19:35.370Z,99387.38
2023-02-19T03:22:09.992Z,99382.81
2023-02-19T03:24:57.170Z,99381.81
2023-02-19T03:27:27.603Z,99380.62
2023-02-19T03:29:58.447Z,99387.76
2023-02-19T03:32:36.776Z,99383.07
2023-02-19T03:35:20.588Z,99384.66
2023-02-19T03:37:57.309Z,99387.31
2023-02-19T03:40:28.224Z,99384.16
2023-02-19T03:43:09.352Z,99383.98
2023-02-19T03:45:54.321Z,99383.17
2023-02-19T03:48:29.196Z,99384.09
2023-02-19T03:50:57.003Z,99396.17
2023-02-19T03:53:30.278Z,99387.11
2023-02-19T03:56:04.309Z,99392.41
2023-02-19T03:58:39.043Z,99391.86
2023-02-19T04:01:11.257Z,99388.58
2023-02-19T04:03:50.138Z,99385.63
2023-02-19T04:06:20.824Z,99379.25
2023-02-19T04:08:50.718Z,99379.64
2023-02-19T04:11:19.845Z,99396.77
2023-02-19T04:13:54.467Z,99397.46
2023-02-19T04:16:24.237Z,99394.95
2023-02-19T04:18:54.688Z,99399.67
2023-02-19T04:21:23.092Z,99391.88
2023-02-19T04:23:51.118Z,99388.06
2023-02-19T04:26:20.181Z,99386.53
2023-02-19T04:28:47.991Z,99389.16
2023-02-19T04:31:16.183Z,99389.30
2023-02-19T04:33:44.166Z,99383.36
2023-02-19T04:36:12.122Z,99386.35
2023-02-19T04:38:39.854Z,99386.42
2023-02-19T04:41:09.156Z,99384.97
2023-02-19T04:43:37.266Z,99381.83
2023-02-19T04:46:05.293Z,99380.90
2023-02-19T04:48:33.183Z,99380.58
2023-02-19T04:51:04.785Z,99380.54
2023-02-19T04:53:32.602Z,99389.43
2023-02-19T04:56:11.369Z,99386.06
2023-02-19T04:58:39.849Z,99384.44
2023-02-19T05:01:08.501Z,99378.14
2023-02-19T05:03:36.710Z,99371.36
2023-02-19T05:06:05.987Z,99366.92
2023-02-19T05:08:34.113Z,99375.70
2023-02-19T05:11:02.677Z,99376.21
2023-02-19T05:13:30.852Z,99378.44
2023-02-19T05:16:03.279Z,99387.48
2023-02-19T05:18:31.827Z,99385.82
2023-02-19T05:21:00.148Z,99385.83
2023-02-19T05:23:27.959Z,99393.54
2023-02-19T05:25:55.707Z,99392.48
2023-02-19T05:28:28.647Z,99387.13
2023-02-19T05:30:57.099Z,99394.31
2023-02-19T05:33:25.838Z,99388.10
2023-02-19T05:35:54.952Z,99387.85
2023-02-19T05:38:23.170Z,99388.98
2023-02-19T05:40:51.429Z,99386.70
2023-02-19T05:43:19.308Z,99384.89
2023-02-19T05:45:47.108Z,99388.17
2023-02-19T05:48:15.155Z,99387.36
2023-02-19T05:50:42.849Z,99390.92
2023-02-19T05:53:13.113Z,99390.30
2023-02-19T05:55:41.173Z,99386.91
2023-02-19T05:58:08.922Z,99385.20
2023-02-19T06:00:36.788Z,99384.47
2023-02-19T06:03:04.550Z,99393.84
2023-02-19T06:05:32.415Z,99397.29
2023-02-19T06:08:00.122Z,99393.38
2023-02-19T06:10:28.204Z,99397.00
2023-02-19T06:12:56.056Z,99400.84
2023-02-19T06:15:23.907Z,99403.21
2023-02-19T06:17:51.598Z,99404.20
2023-02-19T06:20:19.453Z,99406.34
2023-02-19T06:22:49.564Z,99408.31
2023-02-19T06:25:17.750Z,99408.20
2023-02-19T06:27:45.502Z,99416.35
2023-02-19T06:30:13.561Z,99419.86
2023-02-19T06:32:41.432Z,99424.29
2023-02-19T06:35:09.175Z,99427.69
2023-02-19T06:37:36.871Z,99424.03
2023-02-19T06:40:04.884Z,99429.34
2023-02-19T06:42:33.170Z,99430.38
2023-02-19T06:45:01.049Z,99433.17
2023-02-19T06:47:30.958Z,99436.36
2023-02-19T06:49:59.195Z,99443.67
2023-02-19T06:52:27.574Z,99440.86
2023-02-19T06:54:55.351Z,99441.83
2023-02-19T06:57:23.266Z,99444.05
2023-02-19T06:59:50.996Z,99444.00
2023-02-19T07:02:18.723Z,99449.23
2023-02-19T07:04:46.499Z,99445.63
2023-02-19T07:07:14.492Z,99447.35
2023-02-19T07:09:42.269Z,99453.12
2023-02-19T07:12:10.229Z,99456.03
2023-02-19T07:14:38.314Z,99448.59
2023-02-19T07:17:06.188Z,99452.27
2023-02-19T07:19:33.954Z,99457.42
2023-02-19T07:22:01.705Z,99454.73
2023-02-19T07:24:29.480Z,99461.84
2023-02-19T07:26:57.292Z,99459.40
2023-02-19T07:29:25.059Z,99464.48
2023-02-19T07:31:52.778Z,99466.14
2023-02-19T07:34:20.920Z,99465.61
2023-02-19T07:36:48.660Z,99469.05
2023-02-19T07:39:16.390Z,99474.98
2023-02-19T07:41:44.320Z,99477.73
2023-02-19T07:44:16.373Z,99484.09
2023-02-19T07:46:44.392Z,99482.59
2023-02-19T07:49:12.299Z,99489.41
2023-02-19T07:51:40.226Z,99487.23
2023-02-19T07:54:08.772Z,99491.35
2023-02-19T07:56:36.471Z,99485.09
2023-02-19T07:59:04.264Z,99483.24
2023-02-19T08:01:47.941Z,99486.87
2023-02-19T08:04:15.741Z,99484.23
2023-02-19T08:06:43.466Z,99487.14
2023-02-19T08:09:11.712Z,99486.61
2023-02-19T08:11:54.353Z,99491.23
2023-02-19T08:14:28.099Z,99492.02
2023-02-19T08:16:56.713Z,99493.48
2023-02-19T08:19:24.598Z,99499.47
2023-02-19T08:21:53.480Z,99499.10
2023-02-19T08:24:21.443Z,99498.44
2023-02-19T08:26:49.552Z,99504.54
2023-02-19T08:29:17.428Z,99501.15
2023-02-19T08:31:45.308Z,99499.53
2023-02-19T08:34:13.191Z,99505.46
2023-02-19T08:36:40.933Z,99507.26
2023-02-19T08:39:08.750Z,99513.15
2023-02-19T08:41:36.471Z,99516.48
2023-02-19T08:44:04.551Z,99513.45
2023-02-19T08:46:34.342Z,99514.52
2023-02-19T08:49:02.356Z,99519.11
2023-02-19T08:51:30.116Z,99520.47
2023-02-19T08:53:57.996Z,99518.26
2023-02-19T08:56:25.761Z,99516.36
2023-02-19T08:58:53.555Z,99519.64
2023-02-19T09:01:21.509Z,99524.33
2023-02-19T09:03:49.334Z,99529.37
2023-02-19T09:06:18.407Z,99530.77
2023-02-19T09:08:46.737Z,99538.17
2023-02-19T09:11:14.873Z,99541.80
2023-02-19T09:13:43.371Z,99533.65
2023-02-19T09:16:11.880Z,99536.30
2023-02-19T09:18:39.732Z,99538.15
2023-02-19T09:21:07.606Z,99544.27
2023-02-19T09:23:36.232Z,99543.33
2023-02-19T09:26:07.011Z,99548.38
2023-02-19T09:28:34.867Z,99538.46
2023-02-19T09:31:06.404Z,99540.63
2023-02-19T09:33:34.593Z,99540.33
2023-02-19T09:36:02.991Z,99550.11
2023-02-19T09:38:30.955Z,99549.42
2023-02-19T09:41:00.026Z,99552.52
2023-02-19T09:43:28.815Z,99554.30
2023-02-19T09:46:04.435Z,99559.94
2023-02-19T09:48:32.362Z,99561.09
2023-02-19T09:51:01.695Z,99563.93
2023-02-19T09:53:36.156Z,99565.38
2023-02-19T09:56:04.550Z,99569.21
2023-02-19T09:58:34.304Z,99565.14
2023-02-19T10:01:03.314Z,99577.88
2023-02-19T10:03:34.449Z,99586.41
2023-02-19T10:06:06.099Z,99591.11
2023-02-19T10:08:35.270Z,99588.88
2023-02-19T10:11:04.661Z,99592.15
2023-02-19T10:13:37.474Z,99591.78
2023-02-19T10:16:07.007Z,99581.44
2023-02-19T10:18:41.161Z,99583.52
2023-02-19T10:21:15.886Z,99585.64
2023-02-19T10:23:44.282Z,99586.79
2023-02-19T10:26:12.162Z,99592.27
2023-02-19T10:28:39.972Z,99594.72
2023-02-19T10:31:16.363Z,99596.89
2023-02-19T10:33:52.941Z,99598.52
2023-02-19T10:36:27.850Z,99595.58
2023-02-19T10:38:57.311Z,99594.29
2023-02-19T10:41:26.302Z,99593.90
2023-02-19T10:43:54.086Z,99603.05
2023-02-19T10:46:24.278Z,99606.52
2023-02-19T10:48:52.187Z,99601.66
2023-02-19T10:51:25.335Z,99601.40
2023-02-19T10:54:04.357Z,99607.80
2023-02-19T10:56:33.672Z,99613.84
2023-02-19T10:59:17.534Z,99608.95
2023-02-19T11:02:01.566Z,99605.44
2023-02-19T11:04:34.087Z,99610.05
2023-02-19T11:07:14.917Z,99614.09
2023-02-19T11:09:47.163Z,99606.09
2023-02-19T11:12:23.339Z,99613.83
2023-02-19T11:14:51.321Z,99619.33
2023-02-19T11:17:34.932Z,99614.29
2023-02-19T11:20:14.060Z,99612.36
2023-02-19T11:22:42.721Z,99616.36
2023-02-19T11:25:14.414Z,99614.65
2023-02-19T11:27:58.244Z,99623.55
2023-02-19T11:30:26.025Z,99617.05
2023-02-19T11:32:53.878Z,99617.69
2023-02-19T11:35:23.606Z,99611.17
2023-02-19T11:37:59.244Z,99616.64
2023-02-19T11:40:37.479Z,99612.31
2023-02-19T11:43:05.969Z,99607.08
2023-02-19T11:45:37.209Z,99603.61
2023-02-19T11:48:05.034Z,99609.83
2023-02-19T11:50:48.715Z,99614.98
2023-02-19T11:53:22.526Z,99627.38
2023-02-19T11:55:53.243Z,99620.64
2023-02-19T11:58:24.074Z,99615.27
2023-02-19T12:00:57.787Z,99618.52
2023-02-19T12:03:41.653Z,99642.42
2023-02-19T12:06:25.360Z,99636.95
2023-02-19T12:09:09.123Z,99614.85
2023-02-19T12:11:45.170Z,99621.56
2023-02-19T12:14:28.943Z,99582.98
2023-02-19T12:17:05.824Z,99605.04
2023-02-19T12:19:48.518Z,99630.24
2023-02-19T12:22:33.287Z,99624.28
2023-02-19T12:25:07.181Z,99639.27
2023-02-19T12:27:44.472Z,99615.41
2023-02-19T12:30:28.388Z,99623.66
2023-02-19T12:32:59.388Z,99612.66
2023-02-19T12:35:27.125Z,99625.83
2023-02-19T12:38:10.938Z,99638.44
2023-02-19T12:40:49.130Z,99628.89
2023-02-19T12:43:18.477Z,99626.77
2023-02-19T12:45:52.855Z,99624.02
2023-02-19T12:48:20.751Z,99622.05
2023-02-19T12:50:50.917Z,99632.84
2023-02-19T12:53:30.533Z,99616.19
2023-02-19T12:56:00.587Z,99614.30
2023-02-19T12:58:30.663Z,99630.23
2023-02-19T13:00:59.782Z,99622.16
2023-02-19T13:03:30.690Z,99618.08
2023-02-19T13:06:01.601Z,99615.08
2023-02-19T13:08:39.582Z,99614.63
2023-02-19T13:11:15.242Z,99618.54
2023-02-19T13:13:59.644Z,99626.38
2023-02-19T13:16:33.157Z,99623.11
2023-02-19T13:19:03.506Z,99627.52
2023-02-19T13:21:49.357Z,99652.36
2023-02-19T13:24:21.849Z,99623.41
2023-02-19T13:26:49.945Z,99636.73
2023-02-19T13:29:23.868Z,99649.32
2023-02-19T13:32:07.940Z,99658.76
2023-02-19T13:34:44.450Z,99685.14
2023-02-19T13:37:12.465Z,99668.48
2023-02-19T13:39:49.772Z,99666.39
2023-02-19T13:42:27.914Z,99656.88
2023-02-19T13:44:58.027Z,99660.54
2023-02-19T13:47:42.521Z,99673.03
2023-02-19T13:50:17.127Z,99663.02
2023-02-19T13:52:44.946Z,99675.30
2023-02-19T13:55:28.719Z,99680.37
2023-02-19T13:58:16.397Z,99694.94
2023-02-19T14:00:51.828Z,99667.36
2023-02-19T14:03:27.449Z,99658.27
2023-02-19T14:06:06.248Z,99659.38
2023-02-19T14:08:49.971Z,99673.92
2023-02-19T14:11:18.874Z,99677.86
2023-02-19T14:13:49.976Z,99683.67
2023-02-19T14:16:34.917Z,99691.55
2023-02-19T14:19:02.678Z,99688.27
2023-02-19T14:21:37.646Z,99701.14
2023-02-19T14:24:10.944Z,99700.67
2023-02-19T14:26:39.903Z,99708.95
2023-02-19T14:29:08.898Z,99724.28
2023-02-19T14:31:38.293Z,99727.77
2023-02-19T14:34:13.981Z,99728.15
2023-02-19T14:36:59.107Z,99679.77
2023-02-19T14:39:33.057Z,99672.42
2023-02-19T14:42:02.861Z,99695.27
2023-02-19T14:44:45.400Z,99694.89
2023-02-19T14:47:18.172Z,99686.30
2023-02-19T14:49:52.222Z,99705.94
2023-02-19T14:52:36.619Z,99673.70
2023-02-19T14:55:09.316Z,99696.44
2023-02-19T14:57:41.163Z,99713.52
2023-02-19T15:00:24.943Z,99716.06
2023-02-19T15:02:59.531Z,99730.36
2023-02-19T15:05:29.565Z,99741.13
2023-02-19T15:08:00.641Z,99754.56
2023-02-19T15:10:29.992Z,99758.09
2023-02-19T15:13:00.036Z,99757.51
2023-02-19T15:15:29.745Z,99758.52
2023-02-19T15:17:59.021Z,99770.16
2023-02-19T15:20:28.887Z,99767.83
2023-02-19T15:22:58.655Z,99778.75
2023-02-19T15:25:29.782Z,99775.81
2023-02-19T15:28:17.799Z,99771.45
2023-02-19T15:30:45.617Z,99774.09
2023-02-19T15:33:17.999Z,99767.55
2023-02-19T15:35:54.369Z,99760.83
2023-02-19T15:38:22.419Z,99756.11
2023-02-19T15:40:50.399Z,99763.81
2023-02-19T15:43:25.475Z,99771.12
2023-02-19T15:45:57.628Z,99768.25
2023-02-19T15:48:47.075Z,99778.52
2023-02-19T15:51:21.189Z,99783.09
2023-02-19T15:53:51.418Z,99792.85
2023-02-19T15:56:29.408Z,99802.23
2023-02-19T15:59:02.295Z,99801.77
2023-02-19T16:01:31.553Z,99807.55
2023-02-19T16:03:59.809Z,99818.80
2023-02-19T16:06:28.158Z,99826.35
2023-02-19T16:09:01.868Z,99836.28
2023-02-19T16:11:46.010Z,99836.72
2023-02-19T16:14:17.462Z,99844.40
2023-02-19T16:16:46.551Z,99845.73
2023-02-19T16:19:19.657Z,99857.73
2023-02-19T16:21:47.657Z,99862.33
2023-02-19T16:24:31.360Z,99870.67
2023-02-19T16:26:59.287Z,99879.70
2023-02-19T16:29:28.962Z,99879.91
2023-02-19T16:31:58.234Z,99886.94
2023-02-19T16:34:42.082Z,99892.95
2023-02-19T16:37:25.724Z,99895.42
2023-02-19T16:40:16.404Z,99900.62
2023-02-19T16:42:44.580Z,99903.61
2023-02-19T16:45:12.355Z,99908.35
2023-02-19T16:47:44.826Z,99910.06
2023-02-19T16:50:14.603Z,99910.84
2023-02-19T16:52:58.342Z,99908.27
2023-02-19T16:55:26.972Z,99927.55
2023-02-19T16:57:54.854Z,99930.99
2023-02-19T17:00:22.604Z,99932.16
2023-02-19T17:02:51.609Z,99934.18
2023-02-19T17:05:20.198Z,99941.91
2023-02-19T17:07:48.456Z,99946.14
2023-02-19T17:10:18.126Z,99951.83
2023-02-19T17:12:45.918Z,99968.38
2023-02-19T17:15:13.661Z,99975.29
2023-02-19T17:17:41.575Z,99988.86
2023-02-19T17:20:18.354Z,99999.95
2023-02-19T17:22:46.087Z,100001.61
2023-02-19T17:25:13.889Z,100007.36
2023-02-19T17:27:41.849Z,100007.36
2023-02-19T17:30:18.681Z,100010.11
2023-02-19T17:32:46.467Z,100013.08
2023-02-19T17:35:14.320Z,100011.30
2023-02-19T17:37:42.126Z,100013.80
2023-02-19T17:40:32.769Z,100008.21
2023-02-19T17:43:01.946Z,100015.77
2023-02-19T17:45:29.773Z,100017.18
2023-02-19T17:47:58.166Z,100016.58
2023-02-19T17:50:27.378Z,100015.27
2023-02-19T17:52:55.649Z,100026.29
2023-02-19T17:55:23.832Z,100032.04
2023-02-19T17:57:52.020Z,100031.36
2023-02-19T18:00:21.616Z,100030.83
2023-02-19T18:02:49.355Z,100034.14
2023-02-19T18:05:17.863Z,100034.97
2023-02-19T18:07:46.605Z,100033.02
2023-02-19T18:10:15.789Z,100038.10
2023-02-19T18:12:43.560Z,100047.11
2023-02-19T18:15:15.835Z,100051.41
2023-02-19T18:17:44.058Z,100060.27
2023-02-19T18:20:16.656Z,100074.45
2023-02-19T18:22:44.428Z,100079.93
2023-02-19T18:25:12.390Z,100083.24
2023-02-19T18:27:40.165Z,100075.81
2023-02-19T18:30:08.700Z,100077.90
2023-02-19T18:32:37.029Z,100082.77
2023-02-19T18:35:05.303Z,100087.22
2023-02-19T18:37:33.883Z,100087.68
2023-02-19T18:40:02.013Z,100085.61
2023-02-19T18:42:29.742Z,100094.03
2023-02-19T18:44:57.526Z,100091.36
2023-02-19T18:47:25.753Z,100093.84
2023-02-19T18:49:55.024Z,100093.94
2023-02-19T18:52:24.770Z,100096.58
2023-02-19T18:54:53.755Z,100094.57
2023-02-19T18:57:22.476Z,100099.52
2023-02-19T18:59:50.943Z,100103.67
2023-02-19T19:02:19.221Z,100102.00
2023-02-19T19:04:51.070Z,100102.83
2023-02-19T19:07:19.474Z,100109.63
2023-02-19T19:09:47.688Z,100117.60
2023-02-19T19:12:15.864Z,100124.29
2023-02-19T19:14:44.699Z,100127.68
2023-02-19T19:17:12.574Z,100127.17
2023-02-19T19:19:42.496Z,100128.61
2023-02-19T19:22:10.291Z,100128.23
2023-02-19T19:24:38.056Z,100126.85
2023-02-19T19:27:06.029Z,100120.95
2023-02-19T19:29:33.964Z,100122.69
2023-02-19T19:32:01.926Z,100119.47
2023-02-19T19:34:29.624Z,100126.09
2023-02-19T19:36:57.392Z,100120.98
2023-02-19T19:39:25.097Z,100116.95
2023-02-19T19:41:53.769Z,100112.80
2023-02-19T19:44:21.786Z,100112.44
2023-02-19T19:46:50.145Z,100119.66
2023-02-19T19:49:19.146Z,100117.65
2023-02-19T19:51:47.122Z,100119.60
2023-02-19T19:54:15.383Z,100123.79
2023-02-19T19:56:44.584Z,100127.48
2023-02-19T19:59:16.256Z,100122.23
2023-02-19T20:01:47.715Z,100131.41
2023-02-19T20:04:15.674Z,100132.30
2023-02-19T20:06:43.457Z,100131.27
2023-02-19T20:09:11.615Z,100136.95
2023-02-19T20:11:47.423Z,100140.63
2023-02-19T20:14:16.510Z,100150.42
2023-02-19T20:16:44.897Z,100143.17
2023-02-19T20:19:13.539Z,100139.80
2023-02-19T20:21:45.231Z,100142.30
2023-02-19T20:24:13.999Z,100140.36
2023-02-19T20:26:41.899Z,100136.19
2023-02-19T20:29:10.332Z,100134.85
2023-02-19T20:31:38.621Z,100131.73
2023-02-19T20:34:06.611Z,100127.91
2023-02-19T20:36:41.560Z,100122.48
2023-02-19T20:39:09.410Z,100119.34
2023-02-19T20:41:37.216Z,100126.20
2023-02-19T20:44:05.292Z,100122.39
2023-02-19T20:46:33.010Z,100116.41
2023-02-19T20:49:00.790Z,100114.04
2023-02-19T20:51:28.545Z,100122.48
2023-02-19T20:53:56.282Z,100119.83
2023-02-19T20:56:23.933Z,100116.94
2023-02-19T20:58:51.652Z,100110.46
2023-02-19T21:01:24.890Z,100116.44
2023-02-19T21:03:52.683Z,100126.61
2023-02-19T21:06:20.361Z,100121.11
2023-02-19T21:08:48.134Z,100107.52
2023-02-19T21:11:15.868Z,100112.47
2023-02-19T21:13:43.564Z,100116.64
2023-02-19T21:16:11.655Z,100115.66
2023-02-19T21:18:39.672Z,100108.27
2023-02-19T21:21:07.514Z,100112.84
2023-02-19T21:23:35.395Z,100117.85
2023-02-19T21:26:03.494Z,100129.39
2023-02-19T21:28:31.396Z,100121.83
2023-02-19T21:30:59.069Z,100120.75
2023-02-19T21:33:26.853Z,100124.77
2023-02-19T21:35:54.731Z,100130.31
2023-02-19T21:38:22.427Z,100125.96
2023-02-19T21:40:50.761Z,100124.92
2023-02-19T21:43:18.653Z,100137.11
2023-02-19T21:45:46.548Z,100136.34
2023-02-19T21:48:14.518Z,100131.42
2023-02-19T21:50:45.512Z,100139.17
2023-02-19T21:53:13.737Z,100129.91
2023-02-19T21:55:56.568Z,100129.44
2023-02-19T21:58:26.453Z,100126.11
2023-02-19T22:00:54.402Z,100124.60
2023-02-19T22:03:22.156Z,100133.02
2023-02-19T22:05:49.843Z,100135.00
2023-02-19T22:08:17.580Z,100131.60
2023-02-19T22:10:45.308Z,100136.48
2023-02-19T22:13:13.133Z,100145.26
2023-02-19T22:15:41.003Z,100141.33
2023-02-19T22:18:08.707Z,100139.78
2023-02-19T22:20:38.314Z,100133.81
2023-02-19T22:23:06.639Z,100137.48
2023-02-19T22:25:34.395Z,100128.03
2023-02-19T22:28:03.713Z,100126.73
2023-02-19T22:30:31.538Z,100123.36
2023-02-19T22:32:59.544Z,100122.37
2023-02-19T22:35:27.378Z,100123.55
2023-02-19T22:37:55.097Z,100122.76
2023-02-19T22:40:22.864Z,100123.46
2023-02-19T22:42:50.574Z,100128.23
2023-02-19T22:45:18.486Z,100126.27
2023-02-19T22:47:46.891Z,100130.11
2023-02-19T22:50:18.609Z,100115.60
2023-02-19T22:52:46.400Z,100117.06
2023-02-19T22:55:14.551Z,100119.92
2023-02-19T22:57:42.362Z,100120.59
2023-02-19T23:00:16.140Z,100114.09
2023-02-19T23:02:44.031Z,100115.11
2023-02-19T23:05:11.893Z,100114.29
2023-02-19T23:07:41.984Z,100118.97
2023-02-19T23:10:10.388Z,100116.40
2023-02-19T23:12:38.757Z,100116.59
2023-02-19T23:15:07.449Z,100117.80
2023-02-19T23:17:35.419Z,100118.70
2023-02-19T23:20:03.394Z,100115.95
2023-02-19T23:22:33.909Z,100117.02
2023-02-19T23:25:01.667Z,100109.69
2023-02-19T23:27:29.506Z,100111.34
2023-02-19T23:29:57.232Z,100110.29
2023-02-19T23:32:25.045Z,100106.11
2023-02-19T23:34:52.818Z,100109.14
2023-02-19T23:37:20.488Z,100110.13
2023-02-19T23:39:48.246Z,100105.23
2023-02-19T23:42:16.604Z,100097.10
2023-02-19T23:44:47.794Z,100100.02
2023-02-19T23:47:15.745Z,100094.95
2023-02-19T23:49:43.507Z,100094.98
2023-02-19T23:52:11.547Z,100094.65
2023-02-19T23:54:39.384Z,100097.59
2023-02-19T23:57:07.203Z,100097.42
2023-02-19T23:59:34.971Z,100100.45
